sensor_id;sensor_type;location;lat;lon;timestamp;P1;durP1;ratioP1;P2;durP2;ratioP2
64842;SDS011;51310;52.198;5.422;2023-02-08T00:01:24;27.87;;;16.87;;
64842;SDS011;51310;52.198;5.422;2023-02-08T00:03:50;39.15;;;17.10;;
64842;SDS011;51310;52.198;5.422;2023-02-08T00:06:16;33.35;;;18.00;;
64842;SDS011;51310;52.198;5.422;2023-02-08T00:08:42;28.15;;;16.90;;
64842;SDS011;51310;52.198;5.422;2023-02-08T00:11:09;31.52;;;17.42;;
64842;SDS011;51310;52.198;5.422;2023-02-08T00:13:36;31.00;;;17.13;;
64842;SDS011;51310;52.198;5.422;2023-02-08T00:16:05;30.60;;;17.75;;
64842;SDS011;51310;52.198;5.422;2023-02-08T00:18:31;31.60;;;17.85;;
64842;SDS011;51310;52.198;5.422;2023-02-08T00:20:57;28.27;;;16.08;;
64842;SDS011;51310;52.198;5.422;2023-02-08T00:23:23;30.90;;;16.85;;
64842;SDS011;51310;52.198;5.422;2023-02-08T00:25:50;30.85;;;16.35;;
64842;SDS011;51310;52.198;5.422;2023-02-08T00:28:16;31.08;;;17.63;;
64842;SDS011;51310;52.198;5.422;2023-02-08T00:30:43;27.57;;;15.60;;
64842;SDS011;51310;52.198;5.422;2023-02-08T00:33:09;28.50;;;16.23;;
64842;SDS011;51310;52.198;5.422;2023-02-08T00:35:36;30.33;;;16.55;;
64842;SDS011;51310;52.198;5.422;2023-02-08T00:38:02;30.73;;;16.63;;
64842;SDS011;51310;52.198;5.422;2023-02-08T00:40:28;30.13;;;15.88;;
64842;SDS011;51310;52.198;5.422;2023-02-08T00:42:54;27.93;;;15.57;;
64842;SDS011;51310;52.198;5.422;2023-02-08T00:45:19;32.23;;;16.77;;
64842;SDS011;51310;52.198;5.422;2023-02-08T00:47:45;25.35;;;15.25;;
64842;SDS011;51310;52.198;5.422;2023-02-08T00:50:11;25.88;;;15.52;;
64842;SDS011;51310;52.198;5.422;2023-02-08T00:52:37;29.73;;;14.93;;
64842;SDS011;51310;52.198;5.422;2023-02-08T00:55:03;26.30;;;15.83;;
64842;SDS011;51310;52.198;5.422;2023-02-08T00:57:30;26.13;;;15.02;;
64842;SDS011;51310;52.198;5.422;2023-02-08T00:59:58;25.88;;;14.70;;
64842;SDS011;51310;52.198;5.422;2023-02-08T01:02:24;30.13;;;15.63;;
64842;SDS011;51310;52.198;5.422;2023-02-08T01:04:50;26.48;;;15.43;;
64842;SDS011;51310;52.198;5.422;2023-02-08T01:07:16;25.60;;;15.43;;
64842;SDS011;51310;52.198;5.422;2023-02-08T01:09:42;23.63;;;14.40;;
64842;SDS011;51310;52.198;5.422;2023-02-08T01:12:07;26.05;;;14.52;;
64842;SDS011;51310;52.198;5.422;2023-02-08T01:14:33;25.58;;;15.25;;
64842;SDS011;51310;52.198;5.422;2023-02-08T01:17:01;25.85;;;14.18;;
64842;SDS011;51310;52.198;5.422;2023-02-08T01:19:27;25.33;;;14.35;;
64842;SDS011;51310;52.198;5.422;2023-02-08T01:21:53;25.83;;;14.55;;
64842;SDS011;51310;52.198;5.422;2023-02-08T01:24:18;27.38;;;14.95;;
64842;SDS011;51310;52.198;5.422;2023-02-08T01:26:44;23.33;;;14.00;;
64842;SDS011;51310;52.198;5.422;2023-02-08T01:29:10;21.43;;;13.67;;
64842;SDS011;51310;52.198;5.422;2023-02-08T01:31:38;21.70;;;12.90;;
64842;SDS011;51310;52.198;5.422;2023-02-08T01:34:06;23.58;;;13.63;;
64842;SDS011;51310;52.198;5.422;2023-02-08T01:36:33;23.25;;;13.40;;
64842;SDS011;51310;52.198;5.422;2023-02-08T01:38:59;24.42;;;14.05;;
64842;SDS011;51310;52.198;5.422;2023-02-08T01:41:29;25.20;;;13.82;;
64842;SDS011;51310;52.198;5.422;2023-02-08T01:47:11;19.53;;;12.17;;
64842;SDS011;51310;52.198;5.422;2023-02-08T01:49:37;20.20;;;11.77;;
64842;SDS011;51310;52.198;5.422;2023-02-08T01:52:10;20.60;;;12.25;;
64842;SDS011;51310;52.198;5.422;2023-02-08T01:54:50;21.23;;;12.10;;
64842;SDS011;51310;52.198;5.422;2023-02-08T01:57:26;20.42;;;11.95;;
64842;SDS011;51310;52.198;5.422;2023-02-08T01:59:55;20.13;;;11.47;;
64842;SDS011;51310;52.198;5.422;2023-02-08T02:02:28;19.00;;;11.25;;
64842;SDS011;51310;52.198;5.422;2023-02-08T02:04:55;21.08;;;11.68;;
64842;SDS011;51310;52.198;5.422;2023-02-08T02:07:21;18.10;;;11.93;;
64842;SDS011;51310;52.198;5.422;2023-02-08T02:10:11;21.42;;;11.90;;
64842;SDS011;51310;52.198;5.422;2023-02-08T02:12:45;19.48;;;11.68;;
64842;SDS011;51310;52.198;5.422;2023-02-08T02:15:13;18.60;;;11.48;;
64842;SDS011;51310;52.198;5.422;2023-02-08T02:17:39;20.60;;;12.07;;
64842;SDS011;51310;52.198;5.422;2023-02-08T02:29:36;20.43;;;11.87;;
64842;SDS011;51310;52.198;5.422;2023-02-08T02:35:41;22.25;;;11.95;;
64842;SDS011;51310;52.198;5.422;2023-02-08T02:38:51;19.73;;;11.27;;
64842;SDS011;51310;52.198;5.422;2023-02-08T02:41:39;23.35;;;12.30;;
64842;SDS011;51310;52.198;5.422;2023-02-08T02:44:53;18.17;;;11.30;;
64842;SDS011;51310;52.198;5.422;2023-02-08T02:50:23;22.37;;;11.77;;
64842;SDS011;51310;52.198;5.422;2023-02-08T02:53:02;20.55;;;12.02;;
64842;SDS011;51310;52.198;5.422;2023-02-08T02:55:59;21.33;;;11.98;;
64842;SDS011;51310;52.198;5.422;2023-02-08T02:58:34;20.05;;;11.60;;
64842;SDS011;51310;52.198;5.422;2023-02-08T03:01:02;19.20;;;11.50;;
64842;SDS011;51310;52.198;5.422;2023-02-08T03:03:29;21.23;;;13.05;;
64842;SDS011;51310;52.198;5.422;2023-02-08T03:06:05;20.95;;;11.25;;
64842;SDS011;51310;52.198;5.422;2023-02-08T03:11:50;21.27;;;11.55;;
64842;SDS011;51310;52.198;5.422;2023-02-08T03:14:55;20.52;;;11.35;;
64842;SDS011;51310;52.198;5.422;2023-02-08T03:17:55;20.58;;;11.10;;
64842;SDS011;51310;52.198;5.422;2023-02-08T03:20:51;21.98;;;11.48;;
64842;SDS011;51310;52.198;5.422;2023-02-08T03:23:37;21.67;;;11.73;;
64842;SDS011;51310;52.198;5.422;2023-02-08T03:26:33;20.73;;;12.05;;
64842;SDS011;51310;52.198;5.422;2023-02-08T03:29:15;20.35;;;11.02;;
64842;SDS011;51310;52.198;5.422;2023-02-08T03:31:59;20.08;;;12.38;;
64842;SDS011;51310;52.198;5.422;2023-02-08T03:34:51;22.08;;;12.27;;
64842;SDS011;51310;52.198;5.422;2023-02-08T03:37:29;20.90;;;12.50;;
64842;SDS011;51310;52.198;5.422;2023-02-08T03:40:06;23.40;;;12.98;;
64842;SDS011;51310;52.198;5.422;2023-02-08T03:42:43;20.42;;;12.05;;
64842;SDS011;51310;52.198;5.422;2023-02-08T03:45:14;23.35;;;12.55;;
64842;SDS011;51310;52.198;5.422;2023-02-08T03:47:47;23.08;;;11.90;;
64842;SDS011;51310;52.198;5.422;2023-02-08T03:50:18;21.70;;;12.63;;
64842;SDS011;51310;52.198;5.422;2023-02-08T03:52:47;24.70;;;13.18;;
64842;SDS011;51310;52.198;5.422;2023-02-08T03:55:20;23.88;;;12.35;;
64842;SDS011;51310;52.198;5.422;2023-02-08T03:57:53;19.60;;;12.30;;
64842;SDS011;51310;52.198;5.422;2023-02-08T04:00:27;17.55;;;11.02;;
64842;SDS011;51310;52.198;5.422;2023-02-08T04:05:38;20.90;;;12.88;;
64842;SDS011;51310;52.198;5.422;2023-02-08T04:08:05;19.67;;;11.93;;
64842;SDS011;51310;52.198;5.422;2023-02-08T04:10:30;23.33;;;12.90;;
64842;SDS011;51310;52.198;5.422;2023-02-08T04:12:56;22.75;;;12.88;;
64842;SDS011;51310;52.198;5.422;2023-02-08T04:15:22;21.00;;;12.35;;
64842;SDS011;51310;52.198;5.422;2023-02-08T04:17:48;21.48;;;12.00;;
64842;SDS011;51310;52.198;5.422;2023-02-08T04:20:14;20.50;;;11.65;;
64842;SDS011;51310;52.198;5.422;2023-02-08T04:22:39;23.35;;;12.70;;
64842;SDS011;51310;52.198;5.422;2023-02-08T04:25:05;21.07;;;12.23;;
64842;SDS011;51310;52.198;5.422;2023-02-08T04:27:31;22.53;;;12.73;;
64842;SDS011;51310;52.198;5.422;2023-02-08T04:29:57;21.43;;;12.07;;
64842;SDS011;51310;52.198;5.422;2023-02-08T04:32:22;19.40;;;11.63;;
64842;SDS011;51310;52.198;5.422;2023-02-08T04:34:48;22.20;;;12.03;;
64842;SDS011;51310;52.198;5.422;2023-02-08T04:37:13;18.13;;;11.33;;
64842;SDS011;51310;52.198;5.422;2023-02-08T04:39:39;22.53;;;11.87;;
64842;SDS011;51310;52.198;5.422;2023-02-08T04:42:05;23.60;;;13.30;;
64842;SDS011;51310;52.198;5.422;2023-02-08T04:44:32;22.55;;;12.88;;
64842;SDS011;51310;52.198;5.422;2023-02-08T04:46:58;21.50;;;12.80;;
64842;SDS011;51310;52.198;5.422;2023-02-08T04:49:24;21.17;;;12.37;;
64842;SDS011;51310;52.198;5.422;2023-02-08T04:51:50;20.03;;;11.97;;
64842;SDS011;51310;52.198;5.422;2023-02-08T04:54:16;21.73;;;12.47;;
64842;SDS011;51310;52.198;5.422;2023-02-08T04:56:41;22.80;;;12.00;;
64842;SDS011;51310;52.198;5.422;2023-02-08T04:59:07;21.85;;;12.10;;
64842;SDS011;51310;52.198;5.422;2023-02-08T05:01:33;20.52;;;12.38;;
64842;SDS011;51310;52.198;5.422;2023-02-08T05:03:59;21.35;;;11.38;;
64842;SDS011;51310;52.198;5.422;2023-02-08T05:06:24;21.50;;;11.48;;
64842;SDS011;51310;52.198;5.422;2023-02-08T05:08:50;21.23;;;12.55;;
64842;SDS011;51310;52.198;5.422;2023-02-08T05:11:22;21.45;;;11.77;;
64842;SDS011;51310;52.198;5.422;2023-02-08T05:13:49;19.73;;;11.70;;
64842;SDS011;51310;52.198;5.422;2023-02-08T05:16:16;22.67;;;12.53;;
64842;SDS011;51310;52.198;5.422;2023-02-08T05:18:43;20.98;;;11.48;;
64842;SDS011;51310;52.198;5.422;2023-02-08T05:21:09;19.65;;;11.85;;
64842;SDS011;51310;52.198;5.422;2023-02-08T05:23:35;21.67;;;11.20;;
64842;SDS011;51310;52.198;5.422;2023-02-08T05:26:05;17.52;;;11.02;;
64842;SDS011;51310;52.198;5.422;2023-02-08T05:28:34;21.13;;;12.20;;
64842;SDS011;51310;52.198;5.422;2023-02-08T05:31:10;18.67;;;11.48;;
64842;SDS011;51310;52.198;5.422;2023-02-08T05:33:41;21.07;;;11.93;;
64842;SDS011;51310;52.198;5.422;2023-02-08T05:36:07;19.25;;;11.23;;
64842;SDS011;51310;52.198;5.422;2023-02-08T05:38:33;19.33;;;11.30;;
64842;SDS011;51310;52.198;5.422;2023-02-08T05:40:59;20.33;;;11.93;;
64842;SDS011;51310;52.198;5.422;2023-02-08T05:43:24;18.83;;;11.73;;
64842;SDS011;51310;52.198;5.422;2023-02-08T05:45:50;19.47;;;11.63;;
64842;SDS011;51310;52.198;5.422;2023-02-08T05:48:16;20.57;;;11.73;;
64842;SDS011;51310;52.198;5.422;2023-02-08T05:50:42;19.73;;;10.65;;
64842;SDS011;51310;52.198;5.422;2023-02-08T05:53:08;20.58;;;11.65;;
64842;SDS011;51310;52.198;5.422;2023-02-08T05:55:34;17.00;;;10.67;;
64842;SDS011;51310;52.198;5.422;2023-02-08T05:57:59;20.20;;;11.67;;
64842;SDS011;51310;52.198;5.422;2023-02-08T06:00:25;20.57;;;11.27;;
64842;SDS011;51310;52.198;5.422;2023-02-08T06:02:51;21.20;;;11.83;;
64842;SDS011;51310;52.198;5.422;2023-02-08T06:05:17;22.27;;;12.30;;
64842;SDS011;51310;52.198;5.422;2023-02-08T06:07:42;19.80;;;11.93;;
64842;SDS011;51310;52.198;5.422;2023-02-08T06:10:08;20.38;;;11.38;;
64842;SDS011;51310;52.198;5.422;2023-02-08T06:12:34;20.92;;;10.95;;
64842;SDS011;51310;52.198;5.422;2023-02-08T06:15:00;21.23;;;11.45;;
64842;SDS011;51310;52.198;5.422;2023-02-08T06:17:26;19.83;;;11.20;;
64842;SDS011;51310;52.198;5.422;2023-02-08T06:19:52;21.08;;;11.55;;
64842;SDS011;51310;52.198;5.422;2023-02-08T06:22:18;19.67;;;11.15;;
64842;SDS011;51310;52.198;5.422;2023-02-08T06:24:44;20.58;;;11.30;;
64842;SDS011;51310;52.198;5.422;2023-02-08T06:27:09;21.77;;;11.57;;
64842;SDS011;51310;52.198;5.422;2023-02-08T06:29:35;19.95;;;11.68;;
64842;SDS011;51310;52.198;5.422;2023-02-08T06:32:01;24.50;;;12.30;;
64842;SDS011;51310;52.198;5.422;2023-02-08T06:34:26;22.67;;;12.23;;
64842;SDS011;51310;52.198;5.422;2023-02-08T06:36:52;24.50;;;12.15;;
64842;SDS011;51310;52.198;5.422;2023-02-08T06:39:18;20.77;;;12.10;;
64842;SDS011;51310;52.198;5.422;2023-02-08T06:41:44;19.60;;;11.17;;
64842;SDS011;51310;52.198;5.422;2023-02-08T06:44:09;25.50;;;12.03;;
64842;SDS011;51310;52.198;5.422;2023-02-08T06:46:35;22.33;;;12.32;;
64842;SDS011;51310;52.198;5.422;2023-02-08T06:49:01;20.17;;;10.90;;
64842;SDS011;51310;52.198;5.422;2023-02-08T06:51:26;20.93;;;11.43;;
64842;SDS011;51310;52.198;5.422;2023-02-08T06:53:52;20.40;;;11.27;;
64842;SDS011;51310;52.198;5.422;2023-02-08T06:56:18;19.50;;;11.53;;
64842;SDS011;51310;52.198;5.422;2023-02-08T06:58:43;22.20;;;11.93;;
64842;SDS011;51310;52.198;5.422;2023-02-08T07:01:13;20.15;;;11.65;;
64842;SDS011;51310;52.198;5.422;2023-02-08T07:03:39;18.88;;;10.73;;
64842;SDS011;51310;52.198;5.422;2023-02-08T07:06:13;19.63;;;11.27;;
64842;SDS011;51310;52.198;5.422;2023-02-08T07:08:41;22.23;;;11.98;;
64842;SDS011;51310;52.198;5.422;2023-02-08T07:11:07;22.47;;;11.90;;
64842;SDS011;51310;52.198;5.422;2023-02-08T07:13:35;21.67;;;11.57;;
64842;SDS011;51310;52.198;5.422;2023-02-08T07:16:05;17.92;;;10.43;;
64842;SDS011;51310;52.198;5.422;2023-02-08T07:18:33;19.10;;;11.13;;
64842;SDS011;51310;52.198;5.422;2023-02-08T07:20:59;21.23;;;12.38;;
64842;SDS011;51310;52.198;5.422;2023-02-08T07:23:25;20.75;;;11.02;;
64842;SDS011;51310;52.198;5.422;2023-02-08T07:26:02;20.42;;;11.30;;
64842;SDS011;51310;52.198;5.422;2023-02-08T07:28:31;19.70;;;10.95;;
64842;SDS011;51310;52.198;5.422;2023-02-08T07:30:57;22.58;;;12.55;;
64842;SDS011;51310;52.198;5.422;2023-02-08T07:33:23;23.23;;;11.97;;
64842;SDS011;51310;52.198;5.422;2023-02-08T07:35:50;19.40;;;10.75;;
64842;SDS011;51310;52.198;5.422;2023-02-08T07:38:16;19.92;;;10.57;;
64842;SDS011;51310;52.198;5.422;2023-02-08T07:40:42;18.70;;;11.20;;
64842;SDS011;51310;52.198;5.422;2023-02-08T07:43:08;20.63;;;11.50;;
64842;SDS011;51310;52.198;5.422;2023-02-08T07:45:37;22.55;;;11.88;;
64842;SDS011;51310;52.198;5.422;2023-02-08T07:48:04;21.63;;;11.45;;
64842;SDS011;51310;52.198;5.422;2023-02-08T07:50:30;21.77;;;11.68;;
64842;SDS011;51310;52.198;5.422;2023-02-08T07:52:57;22.38;;;12.20;;
64842;SDS011;51310;52.198;5.422;2023-02-08T07:55:22;22.65;;;12.23;;
64842;SDS011;51310;52.198;5.422;2023-02-08T07:57:48;27.33;;;13.30;;
64842;SDS011;51310;52.198;5.422;2023-02-08T08:00:15;26.50;;;14.43;;
64842;SDS011;51310;52.198;5.422;2023-02-08T08:02:43;30.52;;;15.57;;
64842;SDS011;51310;52.198;5.422;2023-02-08T08:05:09;25.13;;;16.47;;
64842;SDS011;51310;52.198;5.422;2023-02-08T08:07:35;25.50;;;15.13;;
64842;SDS011;51310;52.198;5.422;2023-02-08T08:10:02;31.05;;;15.30;;
64842;SDS011;51310;52.198;5.422;2023-02-08T08:12:28;26.83;;;13.35;;
64842;SDS011;51310;52.198;5.422;2023-02-08T08:14:54;21.93;;;13.27;;
64842;SDS011;51310;52.198;5.422;2023-02-08T08:17:20;24.30;;;13.67;;
64842;SDS011;51310;52.198;5.422;2023-02-08T08:19:45;23.07;;;12.73;;
64842;SDS011;51310;52.198;5.422;2023-02-08T08:22:11;21.70;;;11.85;;
64842;SDS011;51310;52.198;5.422;2023-02-08T08:24:37;22.33;;;13.48;;
64842;SDS011;51310;52.198;5.422;2023-02-08T08:27:03;22.17;;;12.43;;
64842;SDS011;51310;52.198;5.422;2023-02-08T08:29:30;20.77;;;12.50;;
64842;SDS011;51310;52.198;5.422;2023-02-08T08:31:58;21.60;;;12.47;;
64842;SDS011;51310;52.198;5.422;2023-02-08T08:34:24;21.85;;;11.77;;
64842;SDS011;51310;52.198;5.422;2023-02-08T08:36:54;24.00;;;11.73;;
64842;SDS011;51310;52.198;5.422;2023-02-08T08:39:25;20.42;;;11.77;;
64842;SDS011;51310;52.198;5.422;2023-02-08T08:42:02;25.67;;;12.80;;
64842;SDS011;51310;52.198;5.422;2023-02-08T08:44:28;20.52;;;11.75;;
64842;SDS011;51310;52.198;5.422;2023-02-08T08:46:55;23.35;;;12.35;;
64842;SDS011;51310;52.198;5.422;2023-02-08T08:49:22;22.43;;;11.53;;
64842;SDS011;51310;52.198;5.422;2023-02-08T08:51:49;24.73;;;11.48;;
64842;SDS011;51310;52.198;5.422;2023-02-08T08:54:16;21.55;;;11.48;;
64842;SDS011;51310;52.198;5.422;2023-02-08T08:56:42;20.70;;;12.13;;
64842;SDS011;51310;52.198;5.422;2023-02-08T08:59:08;21.13;;;12.68;;
64842;SDS011;51310;52.198;5.422;2023-02-08T09:01:34;23.77;;;12.38;;
64842;SDS011;51310;52.198;5.422;2023-02-08T09:03:59;21.63;;;11.40;;
64842;SDS011;51310;52.198;5.422;2023-02-08T09:06:25;20.13;;;10.55;;
64842;SDS011;51310;52.198;5.422;2023-02-08T09:08:51;22.60;;;12.10;;
64842;SDS011;51310;52.198;5.422;2023-02-08T09:11:17;22.10;;;12.30;;
64842;SDS011;51310;52.198;5.422;2023-02-08T09:13:43;21.88;;;11.93;;
64842;SDS011;51310;52.198;5.422;2023-02-08T09:16:11;21.13;;;12.27;;
64842;SDS011;51310;52.198;5.422;2023-02-08T09:18:40;19.67;;;11.40;;
64842;SDS011;51310;52.198;5.422;2023-02-08T09:21:11;29.75;;;12.80;;
64842;SDS011;51310;52.198;5.422;2023-02-08T09:23:40;24.77;;;14.17;;
64842;SDS011;51310;52.198;5.422;2023-02-08T09:26:07;30.13;;;15.38;;
64842;SDS011;51310;52.198;5.422;2023-02-08T09:28:38;29.30;;;16.20;;
64842;SDS011;51310;52.198;5.422;2023-02-08T09:31:20;27.92;;;16.25;;
64842;SDS011;51310;52.198;5.422;2023-02-08T09:33:50;29.98;;;15.98;;
64842;SDS011;51310;52.198;5.422;2023-02-08T09:36:18;33.20;;;15.23;;
64842;SDS011;51310;52.198;5.422;2023-02-08T09:38:45;25.60;;;14.80;;
64842;SDS011;51310;52.198;5.422;2023-02-08T09:41:17;26.65;;;13.93;;
64842;SDS011;51310;52.198;5.422;2023-02-08T09:47:28;26.52;;;13.80;;
64842;SDS011;51310;52.198;5.422;2023-02-08T09:53:03;25.77;;;13.48;;
64842;SDS011;51310;52.198;5.422;2023-02-08T10:00:54;21.73;;;12.75;;
64842;SDS011;51310;52.198;5.422;2023-02-08T10:03:26;21.17;;;11.63;;
64842;SDS011;51310;52.198;5.422;2023-02-08T10:06:04;23.30;;;11.77;;
64842;SDS011;51310;52.198;5.422;2023-02-08T10:08:35;23.27;;;12.30;;
64842;SDS011;51310;52.198;5.422;2023-02-08T10:11:15;23.80;;;11.95;;
64842;SDS011;51310;52.198;5.422;2023-02-08T10:13:52;20.50;;;10.85;;
64842;SDS011;51310;52.198;5.422;2023-02-08T10:25:02;16.70;;;9.68;;
64842;SDS011;51310;52.198;5.422;2023-02-08T10:30:51;20.73;;;11.13;;
64842;SDS011;51310;52.198;5.422;2023-02-08T10:33:29;25.10;;;11.25;;
64842;SDS011;51310;52.198;5.422;2023-02-08T10:36:12;22.95;;;11.25;;
64842;SDS011;51310;52.198;5.422;2023-02-08T10:38:42;16.67;;;10.63;;
64842;SDS011;51310;52.198;5.422;2023-02-08T10:41:09;19.48;;;10.13;;
64842;SDS011;51310;52.198;5.422;2023-02-08T10:43:48;19.05;;;9.98;;
64842;SDS011;51310;52.198;5.422;2023-02-08T10:46:37;16.67;;;10.70;;
64842;SDS011;51310;52.198;5.422;2023-02-08T10:49:33;17.48;;;9.65;;
64842;SDS011;51310;52.198;5.422;2023-02-08T10:52:05;19.40;;;9.70;;
64842;SDS011;51310;52.198;5.422;2023-02-08T10:54:32;18.27;;;9.60;;
64842;SDS011;51310;52.198;5.422;2023-02-08T10:56:59;17.65;;;10.00;;
64842;SDS011;51310;52.198;5.422;2023-02-08T10:59:29;15.45;;;9.85;;
64842;SDS011;51310;52.198;5.422;2023-02-08T11:02:23;15.88;;;10.52;;
64842;SDS011;51310;52.198;5.422;2023-02-08T11:07:34;18.63;;;10.27;;
64842;SDS011;51310;52.198;5.422;2023-02-08T11:10:43;18.87;;;9.83;;
64842;SDS011;51310;52.198;5.422;2023-02-08T11:15:37;18.52;;;10.82;;
64842;SDS011;51310;52.198;5.422;2023-02-08T11:18:26;16.67;;;10.20;;
64842;SDS011;51310;52.198;5.422;2023-02-08T11:20:58;17.10;;;9.85;;
64842;SDS011;51310;52.198;5.422;2023-02-08T11:23:32;18.77;;;10.48;;
64842;SDS011;51310;52.198;5.422;2023-02-08T11:26:13;17.02;;;10.45;;
64842;SDS011;51310;52.198;5.422;2023-02-08T11:34:37;18.23;;;9.77;;
64842;SDS011;51310;52.198;5.422;2023-02-08T11:37:25;14.75;;;9.05;;
64842;SDS011;51310;52.198;5.422;2023-02-08T11:39:53;17.25;;;9.00;;
64842;SDS011;51310;52.198;5.422;2023-02-08T11:42:21;15.63;;;8.57;;
64842;SDS011;51310;52.198;5.422;2023-02-08T11:44:54;18.30;;;8.77;;
64842;SDS011;51310;52.198;5.422;2023-02-08T11:47:23;13.52;;;8.80;;
64842;SDS011;51310;52.198;5.422;2023-02-08T11:49:59;17.57;;;8.93;;
64842;SDS011;51310;52.198;5.422;2023-02-08T11:52:32;14.27;;;8.38;;
64842;SDS011;51310;52.198;5.422;2023-02-08T11:57:54;15.93;;;9.32;;
64842;SDS011;51310;52.198;5.422;2023-02-08T12:00:37;14.55;;;8.90;;
64842;SDS011;51310;52.198;5.422;2023-02-08T12:09:18;16.00;;;9.35;;
64842;SDS011;51310;52.198;5.422;2023-02-08T12:15:06;15.38;;;8.68;;
64842;SDS011;51310;52.198;5.422;2023-02-08T12:21:09;14.73;;;9.00;;
64842;SDS011;51310;52.198;5.422;2023-02-08T12:26:32;12.95;;;7.68;;
64842;SDS011;51310;52.198;5.422;2023-02-08T12:29:14;12.25;;;7.97;;
64842;SDS011;51310;52.198;5.422;2023-02-08T12:32:18;13.30;;;7.95;;
64842;SDS011;51310;52.198;5.422;2023-02-08T12:41:37;14.00;;;7.60;;
64842;SDS011;51310;52.198;5.422;2023-02-08T12:44:23;12.05;;;7.57;;
64842;SDS011;51310;52.198;5.422;2023-02-08T12:50:04;12.65;;;7.28;;
64842;SDS011;51310;52.198;5.422;2023-02-08T12:52:39;14.23;;;7.65;;
64842;SDS011;51310;52.198;5.422;2023-02-08T12:57:43;13.95;;;7.70;;
64842;SDS011;51310;52.198;5.422;2023-02-08T13:05:32;10.82;;;6.22;;
64842;SDS011;51310;52.198;5.422;2023-02-08T13:08:12;13.63;;;6.95;;
64842;SDS011;51310;52.198;5.422;2023-02-08T13:10:59;10.52;;;6.63;;
64842;SDS011;51310;52.198;5.422;2023-02-08T13:13:34;12.05;;;6.18;;
64842;SDS011;51310;52.198;5.422;2023-02-08T13:16:09;10.10;;;6.05;;
64842;SDS011;51310;52.198;5.422;2023-02-08T13:18:51;9.40;;;5.67;;
64842;SDS011;51310;52.198;5.422;2023-02-08T13:21:31;9.75;;;5.70;;
64842;SDS011;51310;52.198;5.422;2023-02-08T13:24:05;9.23;;;5.72;;
64842;SDS011;51310;52.198;5.422;2023-02-08T13:27:00;10.80;;;6.15;;
64842;SDS011;51310;52.198;5.422;2023-02-08T13:29:27;11.15;;;6.30;;
64842;SDS011;51310;52.198;5.422;2023-02-08T13:32:02;12.15;;;5.75;;
64842;SDS011;51310;52.198;5.422;2023-02-08T13:34:40;9.82;;;6.03;;
64842;SDS011;51310;52.198;5.422;2023-02-08T13:37:20;12.70;;;6.93;;
64842;SDS011;51310;52.198;5.422;2023-02-08T13:40:01;13.47;;;6.77;;
64842;SDS011;51310;52.198;5.422;2023-02-08T13:42:46;9.95;;;6.38;;
64842;SDS011;51310;52.198;5.422;2023-02-08T13:45:22;10.77;;;6.40;;
64842;SDS011;51310;52.198;5.422;2023-02-08T13:48:17;11.05;;;6.50;;
64842;SDS011;51310;52.198;5.422;2023-02-08T13:50:51;12.75;;;6.03;;
64842;SDS011;51310;52.198;5.422;2023-02-08T13:56:08;10.82;;;5.63;;
64842;SDS011;51310;52.198;5.422;2023-02-08T14:01:16;9.93;;;5.90;;
64842;SDS011;51310;52.198;5.422;2023-02-08T14:06:36;10.23;;;5.65;;
64842;SDS011;51310;52.198;5.422;2023-02-08T14:09:37;8.82;;;5.32;;
64842;SDS011;51310;52.198;5.422;2023-02-08T14:17:55;8.20;;;4.93;;
64842;SDS011;51310;52.198;5.422;2023-02-08T14:20:37;8.27;;;4.80;;
64842;SDS011;51310;52.198;5.422;2023-02-08T14:26:06;7.90;;;4.38;;
64842;SDS011;51310;52.198;5.422;2023-02-08T14:28:44;7.45;;;5.03;;
64842;SDS011;51310;52.198;5.422;2023-02-08T14:31:12;6.15;;;4.40;;
64842;SDS011;51310;52.198;5.422;2023-02-08T14:33:43;8.77;;;4.87;;
64842;SDS011;51310;52.198;5.422;2023-02-08T14:39:04;9.23;;;5.43;;
64842;SDS011;51310;52.198;5.422;2023-02-08T14:41:49;8.52;;;4.85;;
64842;SDS011;51310;52.198;5.422;2023-02-08T14:47:09;9.02;;;4.82;;
64842;SDS011;51310;52.198;5.422;2023-02-08T14:49:48;7.85;;;4.30;;
64842;SDS011;51310;52.198;5.422;2023-02-08T14:52:56;10.65;;;4.65;;
64842;SDS011;51310;52.198;5.422;2023-02-08T14:58:22;5.80;;;3.60;;
64842;SDS011;51310;52.198;5.422;2023-02-08T15:03:57;6.40;;;3.42;;
64842;SDS011;51310;52.198;5.422;2023-02-08T15:09:04;7.57;;;3.58;;
64842;SDS011;51310;52.198;5.422;2023-02-08T15:12:15;5.53;;;3.50;;
64842;SDS011;51310;52.198;5.422;2023-02-08T15:14:56;6.50;;;3.47;;
64842;SDS011;51310;52.198;5.422;2023-02-08T15:20:18;6.05;;;3.10;;
64842;SDS011;51310;52.198;5.422;2023-02-08T15:22:47;5.55;;;3.63;;
64842;SDS011;51310;52.198;5.422;2023-02-08T15:25:23;6.38;;;3.55;;
64842;SDS011;51310;52.198;5.422;2023-02-08T15:28:17;6.53;;;3.53;;
64842;SDS011;51310;52.198;5.422;2023-02-08T15:30:53;8.33;;;3.63;;
64842;SDS011;51310;52.198;5.422;2023-02-08T15:33:24;6.80;;;3.58;;
64842;SDS011;51310;52.198;5.422;2023-02-08T15:36:07;4.82;;;2.90;;
64842;SDS011;51310;52.198;5.422;2023-02-08T15:38:42;8.02;;;3.45;;
64842;SDS011;51310;52.198;5.422;2023-02-08T15:41:10;6.10;;;3.33;;
64842;SDS011;51310;52.198;5.422;2023-02-08T15:43:40;6.95;;;3.33;;
64842;SDS011;51310;52.198;5.422;2023-02-08T15:46:22;6.55;;;3.08;;
64842;SDS011;51310;52.198;5.422;2023-02-08T15:48:51;5.38;;;3.30;;
64842;SDS011;51310;52.198;5.422;2023-02-08T15:51:20;7.80;;;3.40;;
64842;SDS011;51310;52.198;5.422;2023-02-08T15:53:49;8.10;;;3.65;;
64842;SDS011;51310;52.198;5.422;2023-02-08T15:56:19;7.50;;;4.43;;
64842;SDS011;51310;52.198;5.422;2023-02-08T15:58:53;6.72;;;3.35;;
64842;SDS011;51310;52.198;5.422;2023-02-08T16:01:24;9.10;;;3.38;;
64842;SDS011;51310;52.198;5.422;2023-02-08T16:03:59;6.32;;;3.30;;
64842;SDS011;51310;52.198;5.422;2023-02-08T16:06:36;5.78;;;3.38;;
64842;SDS011;51310;52.198;5.422;2023-02-08T16:09:12;10.77;;;4.18;;
64842;SDS011;51310;52.198;5.422;2023-02-08T16:11:54;6.35;;;3.50;;
64842;SDS011;51310;52.198;5.422;2023-02-08T16:14:24;7.03;;;3.60;;
64842;SDS011;51310;52.198;5.422;2023-02-08T16:16:55;7.95;;;3.88;;
64842;SDS011;51310;52.198;5.422;2023-02-08T16:19:26;7.72;;;3.47;;
64842;SDS011;51310;52.198;5.422;2023-02-08T16:21:56;6.27;;;3.53;;
64842;SDS011;51310;52.198;5.422;2023-02-08T16:24:45;6.88;;;3.85;;
64842;SDS011;51310;52.198;5.422;2023-02-08T16:27:24;8.93;;;4.05;;
64842;SDS011;51310;52.198;5.422;2023-02-08T16:29:54;9.35;;;3.78;;
64842;SDS011;51310;52.198;5.422;2023-02-08T16:32:23;6.07;;;3.63;;
64842;SDS011;51310;52.198;5.422;2023-02-08T16:35:13;5.60;;;3.95;;
64842;SDS011;51310;52.198;5.422;2023-02-08T16:37:52;13.32;;;4.47;;
64842;SDS011;51310;52.198;5.422;2023-02-08T16:40:39;6.97;;;4.18;;
64842;SDS011;51310;52.198;5.422;2023-02-08T16:46:30;12.50;;;5.97;;
64842;SDS011;51310;52.198;5.422;2023-02-08T16:48:40;9.15;;;4.93;;
64842;SDS011;51310;52.198;5.422;2023-02-08T16:51:16;7.30;;;4.27;;
64842;SDS011;51310;52.198;5.422;2023-02-08T16:53:54;9.10;;;4.90;;
64842;SDS011;51310;52.198;5.422;2023-02-08T16:56:25;8.05;;;4.53;;
64842;SDS011;51310;52.198;5.422;2023-02-08T16:58:51;8.05;;;4.40;;
64842;SDS011;51310;52.198;5.422;2023-02-08T17:01:17;7.40;;;4.03;;
64842;SDS011;51310;52.198;5.422;2023-02-08T17:03:47;8.75;;;4.50;;
64842;SDS011;51310;52.198;5.422;2023-02-08T17:09:03;7.68;;;4.25;;
64842;SDS011;51310;52.198;5.422;2023-02-08T17:11:32;11.02;;;4.82;;